Dorchester, New Jersey
Current Conditions -  °F | °C
As of 2:54 AM on Wednesday 26 Nov 2014 (Local Time) from KMIV Reporting Station
Light Rain Light Rain  
Wind Chill: 45°   Ceiling: 7000
Heat Index: 45°   Visibility: 10mi
Dew Point: 42°   Wind: 3mph
Humidity: 90%   Direction: 10°N
Pressure: 30.15"   Gusts: NA
Location:  39.27°N, 74.98°W
Report Text: KMIV 260754Z AUTO 01003KT 10SM -RA OVC070 07/06 A3015 RMK AO2 RAB09 SLP208 P0001 T00720056
Loading
Personal Weather Stations






























Interactive Weather Map New forecast layout! Learn more

10-Day Weather Forecast

Advertisements
Track Severe Weather on mobile